Emprendedora — J7CO2 — position and weather

sailwx.info

Track history (hours):
 
Tides and Currents Weather Stations Pressure Air Temp Water Temp Dewpoint Dewpoint Depression Visibility Wind Speed Wind Dir Waves Ship Positions

Emprendedora

Last reported at 2018-Feb-17 10:36 UTC. Time now 2018-Jul-19 19:12 UTC.
Position N 16°24' W 062°29'.
Warning: this ship's position is months out of date.

Length 77 m; draft 3.1 m.

Type: . MMSI: 325631000.

Date/timePositionNaut miles runAvg speedWind from/ knotsBaromVisibWave heightAir tempDewpointWater temp
2018-Feb-17 10:36N 16°24' W 062°29'1 8.9
2018-Feb-17 10:26N 16°25' W 062°29'4 9.3
2018-Feb-17 10:00N 16°29' W 062°27'7 9.4
2018-Feb-17 09:17N 16°35' W 062°24'3 9.2
2018-Feb-17 08:59N 16°38' W 062°23'4 9.2
2018-Feb-17 08:30N 16°42' W 062°22'5 9.0
2018-Feb-17 08:01N 16°46' W 062°20'22 7.6
2018-Feb-17 05:07N 17°01' W 062°37'1 7.6
2018-Feb-17 04:58N 17°02' W 062°38'4 7.7
2018-Feb-17 04:27N 17°05' W 062°41'21 8.7
2018-Feb-17 02:04N 17°20' W 062°56'12 8.3
2018-Feb-17 00:36N 17°29' W 063°03'3 9.2
2018-Feb-17 00:19N 17°32' W 063°04'3 9.7
2018-Feb-17 00:00N 17°35' W 063°04'6 9.7
2018-Feb-16 23:24N 17°41' W 063°05'4 9.8
2018-Feb-16 22:59N 17°45' W 063°05'5 9.8
2018-Feb-16 22:29N 17°50' W 063°06'5 9.6
2018-Feb-16 21:56N 17°55' W 063°06'4 9.7
2018-Feb-16 21:29N 17°59' W 063°06'2 2.6
2018-Feb-16 20:52N 18°01' W 063°06'0 0.0
2018-Feb-16 20:25N 18°01' W 063°06'0 0.0
2018-Feb-16 19:55N 18°01' W 063°06'0 0.0
2018-Feb-16 19:25N 18°01' W 063°06'0 0.0
2018-Feb-16 18:58N 18°01' W 063°06'0 0.0
2018-Feb-16 18:28N 18°01' W 063°06'0 0.0
2018-Feb-16 17:59N 18°01' W 063°06'0 0.0
2018-Feb-16 17:28N 18°01' W 063°06'0 0.0
2018-Feb-16 16:58N 18°01' W 063°06'0 0.0
2018-Feb-16 16:25N 18°01' W 063°06'0 0.0
2018-Feb-16 15:59N 18°01' W 063°06'0 0.0
2018-Feb-16 15:28N 18°01' W 063°06'0 0.0
2018-Feb-16 14:59N 18°01' W 063°06'0 0.0
2018-Feb-16 14:28N 18°01' W 063°06'0 0.0
2018-Feb-16 13:59N 18°01' W 063°06'0 0.0
2018-Feb-16 13:29N 18°01' W 063°06'0 0.0
2018-Feb-16 12:46N 18°01' W 063°06'0 0.0
2018-Feb-16 12:28N 18°01' W 063°06'0 0.0
2018-Feb-16 11:49N 18°01' W 063°06'0 0.0
2018-Feb-16 11:19N 18°01' W 063°06'0 0.0
2018-Feb-16 10:49N 18°01' W 063°06'0 0.0
2018-Feb-16 10:20N 18°01' W 063°06'0 0.0
2018-Feb-16 09:52N 18°01' W 063°06'0 0.0
2018-Feb-16 09:19N 18°01' W 063°06'0 0.0
2018-Feb-16 08:52N 18°01' W 063°06'0 0.0
2018-Feb-16 08:22N 18°01' W 063°06'0 0.0
2018-Feb-16 07:52N 18°01' W 063°06'0 0.0
2018-Feb-16 07:26N 18°01' W 063°06'0 0.0
2018-Feb-16 06:52N 18°01' W 063°06'0 0.0
2018-Feb-16 06:26N 18°01' W 063°06'0 0.0
2018-Feb-16 05:55N 18°01' W 063°06'0 0.0
2018-Feb-16 05:25N 18°01' W 063°06'0 0.0
2018-Feb-16 04:41N 18°01' W 063°06'0 0.0
2018-Feb-16 04:25N 18°01' W 063°06'0 0.0
2018-Feb-16 03:59N 18°01' W 063°06'0 0.0
2018-Feb-16 03:28N 18°01' W 063°06'0 0.0
2018-Feb-16 02:58N 18°01' W 063°06'0 0.0
2018-Feb-16 02:28N 18°01' W 063°06'0 0.0
2018-Feb-16 01:58N 18°01' W 063°06'0 0.0
2018-Feb-16 01:28N 18°01' W 063°06'0 0.0
2018-Feb-16 00:59N 18°01' W 063°06'0 0.0
2018-Feb-16 00:28N 18°01' W 063°06'0 0.0
2018-Feb-15 23:46N 18°01' W 063°06'0 0.0
2018-Feb-15 23:16N 18°01' W 063°06'0 0.1
2018-Feb-15 22:58N 18°01' W 063°06'0 0.0
2018-Feb-15 22:28N 18°01' W 063°06'1 1.8
2018-Feb-15 21:39N 17°60' W 063°05'1 4.3
2018-Feb-15 21:30N 17°59' W 063°06'3 0.3
2018-Feb-15 12:09N 18°01' W 063°03'0 0.0
2018-Feb-15 11:39N 18°01' W 063°03'0 0.0
2018-Feb-15 11:24N 18°01' W 063°03'0 0.0
2018-Feb-15 10:54N 18°01' W 063°03'0 0.0
2018-Feb-15 10:24N 18°01' W 063°03'0 0.1
2018-Feb-15 05:12N 18°01' W 063°03'0 0.0
2018-Feb-15 05:00N 18°01' W 063°03'0 0.1
2018-Feb-15 04:30N 18°01' W 063°03'0 0.0
2018-Feb-15 00:48N 18°01' W 063°03'0 0.0
2018-Feb-14 22:21N 18°01' W 063°03'0 0.0
2018-Feb-14 18:09N 18°01' W 063°03'0 0.0
2018-Feb-14 17:42N 18°01' W 063°03'0 0.0
2018-Feb-14 16:54N 18°01' W 063°03'0 0.0
2018-Feb-14 13:12N 18°01' W 063°03'0 0.0
2018-Feb-14 12:45N 18°01' W 063°03'0 0.0
2018-Feb-14 11:30N 18°01' W 063°03'0 0.1
2018-Feb-14 10:45N 18°01' W 063°03'0 0.0
2018-Feb-14 10:06N 18°01' W 063°03'0 0.0
2018-Feb-14 09:45N 18°01' W 063°03'0 0.0
2018-Feb-14 07:48N 18°01' W 063°03'0 0.0
2018-Feb-14 06:51N 18°01' W 063°03'0 0.0
2018-Feb-14 05:21N 18°01' W 063°03'0 0.0
2018-Feb-14 04:54N 18°01' W 063°03'0 0.0
2018-Feb-14 04:27N 18°01' W 063°03'0 0.0
2018-Feb-14 02:54N 18°01' W 063°03'0 0.0
2018-Feb-14 01:54N 18°01' W 063°03'0 0.0
2018-Feb-14 01:30N 18°01' W 063°03'0 0.0
2018-Feb-13 23:30N 18°01' W 063°03'0 0.0
2018-Feb-13 22:18N 18°01' W 063°03'0 0.0
2018-Feb-13 20:18N 18°01' W 063°03'0 0.0
2018-Feb-13 19:06N 18°01' W 063°03'0 0.0
2018-Feb-13 18:51N 18°01' W 063°03'0 0.0
2018-Feb-13 18:18N 18°01' W 063°03'0 0.0
2018-Feb-13 18:00N 18°01' W 063°03'0 0.0
2018-Feb-13 17:21N 18°01' W 063°03'0 0.0
2018-Feb-13 14:21N 18°01' W 063°03'0 0.0
2018-Feb-13 13:54N 18°01' W 063°03'0 0.0
2018-Feb-13 13:24N 18°01' W 063°03'0 0.0
2018-Feb-13 12:09N 18°01' W 063°03'0 0.0
2018-Feb-13 11:21N 18°01' W 063°03'0 0.0
2018-Feb-13 11:00N 18°01' W 063°03'0 0.0
2018-Feb-13 09:27N 18°01' W 063°03'0 0.0
2018-Feb-13 07:48N 18°01' W 063°03'0 0.0
2018-Feb-13 07:30N 18°01' W 063°03'0 0.0
2018-Feb-13 07:00N 18°01' W 063°03'0 0.0
2018-Feb-13 05:48N 18°01' W 063°03'0 0.0
2018-Feb-13 05:18N 18°01' W 063°03'0 0.0
2018-Feb-13 04:51N 18°01' W 063°03'0 0.0
2018-Feb-13 03:45N 18°01' W 063°03'0 0.0
2018-Feb-13 03:18N 18°01' W 063°03'0 0.0
2018-Feb-13 01:24N 18°01' W 063°03'0 0.0
2018-Feb-13 00:54N 18°01' W 063°03'0 0.0
2018-Feb-12 22:57N 18°01' W 063°03'0 0.0
2018-Feb-12 18:57N 18°01' W 063°03'1 2.3
2018-Feb-12 18:29N 18°00' W 063°04'0 0.9
2018-Feb-12 17:58N 18°00' W 063°04'2 2.9
2018-Feb-12 17:26N 18°01' W 063°06'0 0.8
2018-Feb-12 16:53N 18°01' W 063°06'0 0.0
2018-Feb-12 16:20N 18°01' W 063°06'0 0.0
2018-Feb-12 15:53N 18°01' W 063°06'0 0.0
2018-Feb-12 15:11N 18°01' W 063°06'0 0.0
2018-Feb-12 14:56N 18°01' W 063°06'0 0.0
2018-Feb-12 14:23N 18°01' W 063°06'0 0.0
2018-Feb-12 13:53N 18°01' W 063°06'0 0.0
2018-Feb-12 13:26N 18°01' W 063°06'0 0.0
2018-Feb-12 12:53N 18°01' W 063°06'0 0.0
2018-Feb-12 12:29N 18°01' W 063°06'0 0.0
2018-Feb-12 11:56N 18°01' W 063°06'0 0.0
2018-Feb-12 11:29N 18°01' W 063°06'0 0.0
2018-Feb-12 10:59N 18°01' W 063°06'0 0.0
2018-Feb-12 10:29N 18°01' W 063°06'0 0.0
2018-Feb-12 09:59N 18°01' W 063°06'0 0.0
2018-Feb-12 09:26N 18°01' W 063°06'0 0.0
2018-Feb-12 08:59N 18°01' W 063°06'0 0.0
2018-Feb-12 08:29N 18°01' W 063°06'0 0.0
2018-Feb-12 07:59N 18°01' W 063°06'0 0.0
2018-Feb-12 07:29N 18°01' W 063°06'0 0.0
2018-Feb-12 06:59N 18°01' W 063°06'0 0.0
2018-Feb-12 06:29N 18°01' W 063°06'0 0.0
2018-Feb-12 05:50N 18°01' W 063°06'0 0.0
2018-Feb-12 05:20N 18°01' W 063°06'0 0.0
2018-Feb-12 04:50N 18°01' W 063°06'0 0.0
2018-Feb-12 04:20N 18°01' W 063°06'0 0.0
2018-Feb-12 03:53N 18°01' W 063°06'0 0.0
2018-Feb-12 03:23N 18°01' W 063°06'0 0.0
2018-Feb-12 02:53N 18°01' W 063°06'0 0.0
2018-Feb-12 02:17N 18°01' W 063°06'0 0.0
2018-Feb-12 01:53N 18°01' W 063°06'0 0.0
2018-Feb-12 01:23N 18°01' W 063°06'0 0.0
2018-Feb-12 00:53N 18°01' W 063°06'0 0.0
2018-Feb-12 00:26N 18°01' W 063°06'0 0.0
2018-Feb-11 23:56N 18°01' W 063°06'0 0.0
2018-Feb-11 23:26N 18°01' W 063°06'0 0.0
2018-Feb-11 22:38N 18°01' W 063°06'0 0.0
2018-Feb-11 22:26N 18°01' W 063°06'0 0.0
2018-Feb-11 21:59N 18°01' W 063°06'0 0.0
2018-Feb-11 21:29N 18°01' W 063°06'0 0.0
2018-Feb-11 20:59N 18°01' W 063°06'0 0.0
2018-Feb-11 20:29N 18°01' W 063°06'0 0.0
2018-Feb-11 19:59N 18°01' W 063°06'0 0.0
2018-Feb-11 19:29N 18°01' W 063°06'3 5.7
2018-Feb-11 19:00N 18°00' W 063°04'1 1.3
2018-Feb-11 18:19N 18°01' W 063°03'0 0.0
2018-Feb-11 17:55N 18°01' W 063°03'0 0.0
2018-Feb-11 17:25N 18°01' W 063°03'0 0.0
2018-Feb-11 16:49N 18°01' W 063°03'0 0.0
2018-Feb-11 16:22N 18°01' W 063°03'0 0.0
2018-Feb-11 15:43N 18°01' W 063°03'0 0.0
2018-Feb-11 15:25N 18°01' W 063°03'0 0.5
2018-Feb-11 14:35N 18°00' W 063°03'0 5.1
2018-Feb-11 14:30N 18°00' W 063°03'2 4.4
2018-Feb-11 14:00N 18°00' W 063°06'1 2.1
2018-Feb-11 13:31N 18°01' W 063°06'0 0.1
2018-Feb-11 12:58N 18°01' W 063°06'0 0.0
2018-Feb-11 12:16N 18°01' W 063°06'0 0.0
2018-Feb-11 11:58N 18°01' W 063°06'0 0.0
2018-Feb-11 11:28N 18°01' W 063°06'0 0.0
2018-Feb-11 11:00N 18°01' W 063°06'0 0.0
2018-Feb-11 10:28N 18°01' W 063°06'0 0.0
2018-Feb-11 10:00N 18°01' W 063°06'0 0.0
2018-Feb-11 09:27N 18°01' W 063°06'0 0.0
2018-Feb-11 08:52N 18°01' W 063°06'0 0.0
2018-Feb-11 08:30N 18°01' W 063°06'0 0.0
2018-Feb-11 08:00N 18°01' W 063°06'0 0.0
2018-Feb-11 07:19N 18°01' W 063°06'0 0.0
2018-Feb-11 06:49N 18°01' W 063°06'0 0.0
2018-Feb-11 06:22N 18°01' W 063°06'0 0.0
2018-Feb-11 05:52N 18°01' W 063°06'0 0.0
2018-Feb-11 05:21N 18°01' W 063°06'0 0.0
2018-Feb-11 04:40N 18°01' W 063°06'0 0.0
2018-Feb-11 04:25N 18°01' W 063°06'0 0.0
2018-Feb-11 03:55N 18°01' W 063°06'0 0.0
2018-Feb-11 03:09N 18°01' W 063°06'0 0.0
2018-Feb-11 02:55N 18°01' W 063°06'0 0.0
2018-Feb-11 02:28N 18°01' W 063°06'0 0.0
2018-Feb-11 01:57N 18°01' W 063°06'0 0.0
2018-Feb-11 01:28N 18°01' W 063°06'0 0.0
2018-Feb-11 00:54N 18°01' W 063°06'0 0.0
2018-Feb-11 00:28N 18°01' W 063°06'0 0.0
2018-Feb-10 23:54N 18°01' W 063°06'0 0.0
2018-Feb-10 23:24N 18°01' W 063°06'0 0.0
2018-Feb-10 22:57N 18°01' W 063°06'0 0.0
2018-Feb-10 22:30N 18°01' W 063°06'0 0.0
2018-Feb-10 21:15N 18°01' W 063°06'0 0.0
2018-Feb-10 21:00N 18°01' W 063°06'0 0.0
2018-Feb-10 20:30N 18°01' W 063°06'0 0.0
2018-Feb-10 20:00N 18°01' W 063°06'0 0.0
2018-Feb-10 19:30N 18°01' W 063°06'0 0.0
2018-Feb-10 19:00N 18°01' W 063°06'0 0.0
2018-Feb-10 18:28N 18°01' W 063°06'0 0.0
2018-Feb-10 18:00N 18°01' W 063°06'0 0.0
2018-Feb-10 17:30N 18°01' W 063°06'0 0.0
2018-Feb-10 17:00N 18°01' W 063°06'0 0.0
2018-Feb-10 16:21N 18°01' W 063°06'0 0.1
2018-Feb-10 15:51N 18°01' W 063°06'0 0.0
2018-Feb-10 15:21N 18°01' W 063°06'0 0.0
2018-Feb-10 14:51N 18°01' W 063°06'0 0.0
2018-Feb-10 14:24N 18°01' W 063°06'0 0.0
2018-Feb-10 13:54N 18°01' W 063°06'0 0.0
2018-Feb-10 13:24N 18°01' W 063°06'0 0.0
2018-Feb-10 12:54N 18°01' W 063°06'0 0.0
2018-Feb-10 12:24N 18°01' W 063°06'0 0.0
2018-Feb-10 11:54N 18°01' W 063°06'0 0.0
2018-Feb-10 11:27N 18°01' W 063°06'0 0.0
2018-Feb-10 10:57N 18°01' W 063°06'0 0.0
2018-Feb-10 10:27N 18°01' W 063°06'0 0.0
2018-Feb-10 09:58N 18°01' W 063°06'0 0.0
2018-Feb-10 09:27N 18°01' W 063°06'0 0.0
2018-Feb-10 08:57N 18°01' W 063°06'0 0.0
2018-Feb-10 08:30N 18°01' W 063°06'0 0.0
2018-Feb-10 08:00N 18°01' W 063°06'0 0.0
2018-Feb-10 07:30N 18°01' W 063°06'0 0.0
2018-Feb-10 06:57N 18°01' W 063°06'0 0.0
2018-Feb-10 06:30N 18°01' W 063°06'0 0.0
2018-Feb-10 05:57N 18°01' W 063°06'0 0.0
2018-Feb-10 05:27N 18°01' W 063°06'0 0.0
2018-Feb-10 05:00N 18°01' W 063°06'0 0.0
2018-Feb-10 04:30N 18°01' W 063°06'0 0.0
2018-Feb-10 04:00N 18°01' W 063°06'0 0.0
2018-Feb-10 03:18N 18°01' W 063°06'0 0.0
2018-Feb-10 03:00N 18°01' W 063°06'0 0.0
2018-Feb-10 02:21N 18°01' W 063°06'0 0.0
2018-Feb-10 01:51N 18°01' W 063°06'0 0.0
2018-Feb-10 01:22N 18°01' W 063°06'0 0.0
2018-Feb-10 01:00N 18°01' W 063°06'0 0.0
2018-Feb-10 00:21N 18°01' W 063°06'0 0.0
2018-Feb-09 23:54N 18°01' W 063°06'0 0.0
2018-Feb-09 23:24N 18°01' W 063°06'0 0.0
2018-Feb-09 22:48N 18°01' W 063°06'0 0.0
2018-Feb-09 22:39N 18°01' W 063°06'0 0.0
2018-Feb-09 13:00N 18°01' W 063°06'0 0.0
2018-Feb-09 12:30N 18°01' W 063°06'0 0.0
2018-Feb-09 12:00N 18°01' W 063°06'0 0.0
2018-Feb-09 11:30N 18°01' W 063°06'0 0.0
2018-Feb-09 11:00N 18°01' W 063°06'0 0.0
2018-Feb-09 03:30N 18°01' W 063°06'0 0.0
2018-Feb-09 03:00N 18°01' W 063°06'86 5.9
2018-Feb-08 12:30N 16°50' W 062°16'3 0.3
2018-Feb-08 01:28N 16°48' W 062°13'0 0.0
2018-Feb-08 00:58N 16°48' W 062°13'0 0.0
2018-Feb-08 00:19N 16°48' W 062°13'0 0.0
2018-Feb-07 23:55N 16°48' W 062°13'0 0.0
2018-Feb-07 23:28N 16°48' W 062°13'0 0.0
2018-Feb-07 22:52N 16°48' W 062°13'0 0.0
2018-Feb-07 22:28N 16°48' W 062°13'0 0.0
2018-Feb-07 21:58N 16°48' W 062°13'0 0.0
2018-Feb-07 21:28N 16°48' W 062°13'  
Track history (hours):
 
Tides and Currents Weather Stations Pressure Air Temp Water Temp Dewpoint Dewpoint Depression Visibility Wind Speed Wind Dir Waves Ship Positions

Emprendedora

Last reported at 2018-Feb-17 10:36 UTC. Time now 2018-Jul-19 19:12 UTC.
Position N 16°24' W 062°29'.
Warning: this ship's position is months out of date.

Length 77 m; draft 3.1 m.

Type: . MMSI: 325631000.

Date/timePositionNaut miles runAvg speedWind from/ knotsBaromVisibWave heightAir tempDewpointWater temp
2018-Feb-17 10:36N 16°24' W 062°29'1 8.9
2018-Feb-17 10:26N 16°25' W 062°29'4 9.3
2018-Feb-17 10:00N 16°29' W 062°27'7 9.4
2018-Feb-17 09:17N 16°35' W 062°24'3 9.2
2018-Feb-17 08:59N 16°38' W 062°23'4 9.2
2018-Feb-17 08:30N 16°42' W 062°22'5 9.0
2018-Feb-17 08:01N 16°46' W 062°20'22 7.6
2018-Feb-17 05:07N 17°01' W 062°37'1 7.6
2018-Feb-17 04:58N 17°02' W 062°38'4 7.7
2018-Feb-17 04:27N 17°05' W 062°41'21 8.7
2018-Feb-17 02:04N 17°20' W 062°56'12 8.3
2018-Feb-17 00:36N 17°29' W 063°03'3 9.2
2018-Feb-17 00:19N 17°32' W 063°04'3 9.7
2018-Feb-17 00:00N 17°35' W 063°04'6 9.7
2018-Feb-16 23:24N 17°41' W 063°05'4 9.8
2018-Feb-16 22:59N 17°45' W 063°05'5 9.8
2018-Feb-16 22:29N 17°50' W 063°06'5 9.6
2018-Feb-16 21:56N 17°55' W 063°06'4 9.7
2018-Feb-16 21:29N 17°59' W 063°06'2 2.6
2018-Feb-16 20:52N 18°01' W 063°06'0 0.0
2018-Feb-16 20:25N 18°01' W 063°06'0 0.0
2018-Feb-16 19:55N 18°01' W 063°06'0 0.0
2018-Feb-16 19:25N 18°01' W 063°06'0 0.0
2018-Feb-16 18:58N 18°01' W 063°06'0 0.0
2018-Feb-16 18:28N 18°01' W 063°06'0 0.0
2018-Feb-16 17:59N 18°01' W 063°06'0 0.0
2018-Feb-16 17:28N 18°01' W 063°06'0 0.0
2018-Feb-16 16:58N 18°01' W 063°06'0 0.0
2018-Feb-16 16:25N 18°01' W 063°06'0 0.0
2018-Feb-16 15:59N 18°01' W 063°06'0 0.0
2018-Feb-16 15:28N 18°01' W 063°06'0 0.0
2018-Feb-16 14:59N 18°01' W 063°06'0 0.0
2018-Feb-16 14:28N 18°01' W 063°06'0 0.0
2018-Feb-16 13:59N 18°01' W 063°06'0 0.0
2018-Feb-16 13:29N 18°01' W 063°06'0 0.0
2018-Feb-16 12:46N 18°01' W 063°06'0 0.0
2018-Feb-16 12:28N 18°01' W 063°06'0 0.0
2018-Feb-16 11:49N 18°01' W 063°06'0 0.0
2018-Feb-16 11:19N 18°01' W 063°06'0 0.0
2018-Feb-16 10:49N 18°01' W 063°06'0 0.0
2018-Feb-16 10:20N 18°01' W 063°06'0 0.0
2018-Feb-16 09:52N 18°01' W 063°06'0 0.0
2018-Feb-16 09:19N 18°01' W 063°06'0 0.0
2018-Feb-16 08:52N 18°01' W 063°06'0 0.0
2018-Feb-16 08:22N 18°01' W 063°06'0 0.0
2018-Feb-16 07:52N 18°01' W 063°06'0 0.0
2018-Feb-16 07:26N 18°01' W 063°06'0 0.0
2018-Feb-16 06:52N 18°01' W 063°06'0 0.0
2018-Feb-16 06:26N 18°01' W 063°06'0 0.0
2018-Feb-16 05:55N 18°01' W 063°06'0 0.0
2018-Feb-16 05:25N 18°01' W 063°06'0 0.0
2018-Feb-16 04:41N 18°01' W 063°06'0 0.0
2018-Feb-16 04:25N 18°01' W 063°06'0 0.0
2018-Feb-16 03:59N 18°01' W 063°06'0 0.0
2018-Feb-16 03:28N 18°01' W 063°06'0 0.0
2018-Feb-16 02:58N 18°01' W 063°06'0 0.0
2018-Feb-16 02:28N 18°01' W 063°06'0 0.0
2018-Feb-16 01:58N 18°01' W 063°06'0 0.0
2018-Feb-16 01:28N 18°01' W 063°06'0 0.0
2018-Feb-16 00:59N 18°01' W 063°06'0 0.0
2018-Feb-16 00:28N 18°01' W 063°06'0 0.0
2018-Feb-15 23:46N 18°01' W 063°06'0 0.0
2018-Feb-15 23:16N 18°01' W 063°06'0 0.1
2018-Feb-15 22:58N 18°01' W 063°06'0 0.0
2018-Feb-15 22:28N 18°01' W 063°06'1 1.8
2018-Feb-15 21:39N 17°60' W 063°05'1 4.3
2018-Feb-15 21:30N 17°59' W 063°06'3 0.3
2018-Feb-15 12:09N 18°01' W 063°03'0 0.0
2018-Feb-15 11:39N 18°01' W 063°03'0 0.0
2018-Feb-15 11:24N 18°01' W 063°03'0 0.0
2018-Feb-15 10:54N 18°01' W 063°03'0 0.0
2018-Feb-15 10:24N 18°01' W 063°03'0 0.1
2018-Feb-15 05:12N 18°01' W 063°03'0 0.0
2018-Feb-15 05:00N 18°01' W 063°03'0 0.1
2018-Feb-15 04:30N 18°01' W 063°03'0 0.0
2018-Feb-15 00:48N 18°01' W 063°03'0 0.0
2018-Feb-14 22:21N 18°01' W 063°03'0 0.0
2018-Feb-14 18:09N 18°01' W 063°03'0 0.0
2018-Feb-14 17:42N 18°01' W 063°03'0 0.0
2018-Feb-14 16:54N 18°01' W 063°03'0 0.0
2018-Feb-14 13:12N 18°01' W 063°03'0 0.0
2018-Feb-14 12:45N 18°01' W 063°03'0 0.0
2018-Feb-14 11:30N 18°01' W 063°03'0 0.1
2018-Feb-14 10:45N 18°01' W 063°03'0 0.0
2018-Feb-14 10:06N 18°01' W 063°03'0 0.0
2018-Feb-14 09:45N 18°01' W 063°03'0 0.0
2018-Feb-14 07:48N 18°01' W 063°03'0 0.0
2018-Feb-14 06:51N 18°01' W 063°03'0 0.0
2018-Feb-14 05:21N 18°01' W 063°03'0 0.0
2018-Feb-14 04:54N 18°01' W 063°03'0 0.0
2018-Feb-14 04:27N 18°01' W 063°03'0 0.0
2018-Feb-14 02:54N 18°01' W 063°03'0 0.0
2018-Feb-14 01:54N 18°01' W 063°03'0 0.0
2018-Feb-14 01:30N 18°01' W 063°03'0 0.0
2018-Feb-13 23:30N 18°01' W 063°03'0 0.0
2018-Feb-13 22:18N 18°01' W 063°03'0 0.0
2018-Feb-13 20:18N 18°01' W 063°03'0 0.0
2018-Feb-13 19:06N 18°01' W 063°03'0 0.0
2018-Feb-13 18:51N 18°01' W 063°03'0 0.0
2018-Feb-13 18:18N 18°01' W 063°03'0 0.0
2018-Feb-13 18:00N 18°01' W 063°03'0 0.0
2018-Feb-13 17:21N 18°01' W 063°03'0 0.0
2018-Feb-13 14:21N 18°01' W 063°03'0 0.0
2018-Feb-13 13:54N 18°01' W 063°03'0 0.0
2018-Feb-13 13:24N 18°01' W 063°03'0 0.0
2018-Feb-13 12:09N 18°01' W 063°03'0 0.0
2018-Feb-13 11:21N 18°01' W 063°03'0 0.0
2018-Feb-13 11:00N 18°01' W 063°03'0 0.0
2018-Feb-13 09:27N 18°01' W 063°03'0 0.0
2018-Feb-13 07:48N 18°01' W 063°03'0 0.0
2018-Feb-13 07:30N 18°01' W 063°03'0 0.0
2018-Feb-13 07:00N 18°01' W 063°03'0 0.0
2018-Feb-13 05:48N 18°01' W 063°03'0 0.0
2018-Feb-13 05:18N 18°01' W 063°03'0 0.0
2018-Feb-13 04:51N 18°01' W 063°03'0 0.0
2018-Feb-13 03:45N 18°01' W 063°03'0 0.0
2018-Feb-13 03:18N 18°01' W 063°03'0 0.0
2018-Feb-13 01:24N 18°01' W 063°03'0 0.0
2018-Feb-13 00:54N 18°01' W 063°03'0 0.0
2018-Feb-12 22:57N 18°01' W 063°03'0 0.0
2018-Feb-12 18:57N 18°01' W 063°03'1 2.3
2018-Feb-12 18:29N 18°00' W 063°04'0 0.9
2018-Feb-12 17:58N 18°00' W 063°04'2 2.9
2018-Feb-12 17:26N 18°01' W 063°06'0 0.8
2018-Feb-12 16:53N 18°01' W 063°06'0 0.0
2018-Feb-12 16:20N 18°01' W 063°06'0 0.0
2018-Feb-12 15:53N 18°01' W 063°06'0 0.0
2018-Feb-12 15:11N 18°01' W 063°06'0 0.0
2018-Feb-12 14:56N 18°01' W 063°06'0 0.0
2018-Feb-12 14:23N 18°01' W 063°06'0 0.0
2018-Feb-12 13:53N 18°01' W 063°06'0 0.0
2018-Feb-12 13:26N 18°01' W 063°06'0 0.0
2018-Feb-12 12:53N 18°01' W 063°06'0 0.0
2018-Feb-12 12:29N 18°01' W 063°06'0 0.0
2018-Feb-12 11:56N 18°01' W 063°06'0 0.0
2018-Feb-12 11:29N 18°01' W 063°06'0 0.0
2018-Feb-12 10:59N 18°01' W 063°06'0 0.0
2018-Feb-12 10:29N 18°01' W 063°06'0 0.0
2018-Feb-12 09:59N 18°01' W 063°06'0 0.0
2018-Feb-12 09:26N 18°01' W 063°06'0 0.0
2018-Feb-12 08:59N 18°01' W 063°06'0 0.0
2018-Feb-12 08:29N 18°01' W 063°06'0 0.0
2018-Feb-12 07:59N 18°01' W 063°06'0 0.0
2018-Feb-12 07:29N 18°01' W 063°06'0 0.0
2018-Feb-12 06:59N 18°01' W 063°06'0 0.0
2018-Feb-12 06:29N 18°01' W 063°06'0 0.0
2018-Feb-12 05:50N 18°01' W 063°06'0 0.0
2018-Feb-12 05:20N 18°01' W 063°06'0 0.0
2018-Feb-12 04:50N 18°01' W 063°06'0 0.0
2018-Feb-12 04:20N 18°01' W 063°06'0 0.0
2018-Feb-12 03:53N 18°01' W 063°06'0 0.0
2018-Feb-12 03:23N 18°01' W 063°06'0 0.0
2018-Feb-12 02:53N 18°01' W 063°06'0 0.0
2018-Feb-12 02:17N 18°01' W 063°06'0 0.0
2018-Feb-12 01:53N 18°01' W 063°06'0 0.0
2018-Feb-12 01:23N 18°01' W 063°06'0 0.0
2018-Feb-12 00:53N 18°01' W 063°06'0 0.0
2018-Feb-12 00:26N 18°01' W 063°06'0 0.0
2018-Feb-11 23:56N 18°01' W 063°06'0 0.0
2018-Feb-11 23:26N 18°01' W 063°06'0 0.0
2018-Feb-11 22:38N 18°01' W 063°06'0 0.0
2018-Feb-11 22:26N 18°01' W 063°06'0 0.0
2018-Feb-11 21:59N 18°01' W 063°06'0 0.0
2018-Feb-11 21:29N 18°01' W 063°06'0 0.0
2018-Feb-11 20:59N 18°01' W 063°06'0 0.0
2018-Feb-11 20:29N 18°01' W 063°06'0 0.0
2018-Feb-11 19:59N 18°01' W 063°06'0 0.0
2018-Feb-11 19:29N 18°01' W 063°06'3 5.7
2018-Feb-11 19:00N 18°00' W 063°04'1 1.3
2018-Feb-11 18:19N 18°01' W 063°03'0 0.0
2018-Feb-11 17:55N 18°01' W 063°03'0 0.0
2018-Feb-11 17:25N 18°01' W 063°03'0 0.0
2018-Feb-11 16:49N 18°01' W 063°03'0 0.0
2018-Feb-11 16:22N 18°01' W 063°03'0 0.0
2018-Feb-11 15:43N 18°01' W 063°03'0 0.0
2018-Feb-11 15:25N 18°01' W 063°03'0 0.5
2018-Feb-11 14:35N 18°00' W 063°03'0 5.1
2018-Feb-11 14:30N 18°00' W 063°03'2 4.4
2018-Feb-11 14:00N 18°00' W 063°06'1 2.1
2018-Feb-11 13:31N 18°01' W 063°06'0 0.1
2018-Feb-11 12:58N 18°01' W 063°06'0 0.0
2018-Feb-11 12:16N 18°01' W 063°06'0 0.0
2018-Feb-11 11:58N 18°01' W 063°06'0 0.0
2018-Feb-11 11:28N 18°01' W 063°06'0 0.0
2018-Feb-11 11:00N 18°01' W 063°06'0 0.0
2018-Feb-11 10:28N 18°01' W 063°06'0 0.0
2018-Feb-11 10:00N 18°01' W 063°06'0 0.0
2018-Feb-11 09:27N 18°01' W 063°06'0 0.0
2018-Feb-11 08:52N 18°01' W 063°06'0 0.0
2018-Feb-11 08:30N 18°01' W 063°06'0 0.0
2018-Feb-11 08:00N 18°01' W 063°06'0 0.0
2018-Feb-11 07:19N 18°01' W 063°06'0 0.0
2018-Feb-11 06:49N 18°01' W 063°06'0 0.0
2018-Feb-11 06:22N 18°01' W 063°06'0 0.0
2018-Feb-11 05:52N 18°01' W 063°06'0 0.0
2018-Feb-11 05:21N 18°01' W 063°06'0 0.0
2018-Feb-11 04:40N 18°01' W 063°06'0 0.0
2018-Feb-11 04:25N 18°01' W 063°06'0 0.0
2018-Feb-11 03:55N 18°01' W 063°06'0 0.0
2018-Feb-11 03:09N 18°01' W 063°06'0 0.0
2018-Feb-11 02:55N 18°01' W 063°06'0 0.0
2018-Feb-11 02:28N 18°01' W 063°06'0 0.0
2018-Feb-11 01:57N 18°01' W 063°06'0 0.0
2018-Feb-11 01:28N 18°01' W 063°06'0 0.0
2018-Feb-11 00:54N 18°01' W 063°06'0 0.0
2018-Feb-11 00:28N 18°01' W 063°06'0 0.0
2018-Feb-10 23:54N 18°01' W 063°06'0 0.0
2018-Feb-10 23:24N 18°01' W 063°06'0 0.0
2018-Feb-10 22:57N 18°01' W 063°06'0 0.0
2018-Feb-10 22:30N 18°01' W 063°06'0 0.0
2018-Feb-10 21:15N 18°01' W 063°06'0 0.0
2018-Feb-10 21:00N 18°01' W 063°06'0 0.0
2018-Feb-10 20:30N 18°01' W 063°06'0 0.0
2018-Feb-10 20:00N 18°01' W 063°06'0 0.0
2018-Feb-10 19:30N 18°01' W 063°06'0 0.0
2018-Feb-10 19:00N 18°01' W 063°06'0 0.0
2018-Feb-10 18:28N 18°01' W 063°06'0 0.0
2018-Feb-10 18:00N 18°01' W 063°06'0 0.0
2018-Feb-10 17:30N 18°01' W 063°06'0 0.0
2018-Feb-10 17:00N 18°01' W 063°06'0 0.0
2018-Feb-10 16:21N 18°01' W 063°06'0 0.1
2018-Feb-10 15:51N 18°01' W 063°06'0 0.0
2018-Feb-10 15:21N 18°01' W 063°06'0 0.0
2018-Feb-10 14:51N 18°01' W 063°06'0 0.0
2018-Feb-10 14:24N 18°01' W 063°06'0 0.0
2018-Feb-10 13:54N 18°01' W 063°06'0 0.0
2018-Feb-10 13:24N 18°01' W 063°06'0 0.0
2018-Feb-10 12:54N 18°01' W 063°06'0 0.0
2018-Feb-10 12:24N 18°01' W 063°06'0 0.0
2018-Feb-10 11:54N 18°01' W 063°06'0 0.0
2018-Feb-10 11:27N 18°01' W 063°06'0 0.0
2018-Feb-10 10:57N 18°01' W 063°06'0 0.0
2018-Feb-10 10:27N 18°01' W 063°06'0 0.0
2018-Feb-10 09:58N 18°01' W 063°06'0 0.0
2018-Feb-10 09:27N 18°01' W 063°06'0 0.0
2018-Feb-10 08:57N 18°01' W 063°06'0 0.0
2018-Feb-10 08:30N 18°01' W 063°06'0 0.0
2018-Feb-10 08:00N 18°01' W 063°06'0 0.0
2018-Feb-10 07:30N 18°01' W 063°06'0 0.0
2018-Feb-10 06:57N 18°01' W 063°06'0 0.0
2018-Feb-10 06:30N 18°01' W 063°06'0 0.0
2018-Feb-10 05:57N 18°01' W 063°06'0 0.0
2018-Feb-10 05:27N 18°01' W 063°06'0 0.0
2018-Feb-10 05:00N 18°01' W 063°06'0 0.0
2018-Feb-10 04:30N 18°01' W 063°06'0 0.0
2018-Feb-10 04:00N 18°01' W 063°06'0 0.0
2018-Feb-10 03:18N 18°01' W 063°06'0 0.0
2018-Feb-10 03:00N 18°01' W 063°06'0 0.0
2018-Feb-10 02:21N 18°01' W 063°06'0 0.0
2018-Feb-10 01:51N 18°01' W 063°06'0 0.0
2018-Feb-10 01:22N 18°01' W 063°06'0 0.0
2018-Feb-10 01:00N 18°01' W 063°06'0 0.0
2018-Feb-10 00:21N 18°01' W 063°06'0 0.0
2018-Feb-09 23:54N 18°01' W 063°06'0 0.0
2018-Feb-09 23:24N 18°01' W 063°06'0 0.0
2018-Feb-09 22:48N 18°01' W 063°06'0 0.0
2018-Feb-09 22:39N 18°01' W 063°06'0 0.0
2018-Feb-09 13:00N 18°01' W 063°06'0 0.0
2018-Feb-09 12:30N 18°01' W 063°06'0 0.0
2018-Feb-09 12:00N 18°01' W 063°06'0 0.0
2018-Feb-09 11:30N 18°01' W 063°06'0 0.0
2018-Feb-09 11:00N 18°01' W 063°06'0 0.0
2018-Feb-09 03:30N 18°01' W 063°06'0 0.0
2018-Feb-09 03:00N 18°01' W 063°06'86 5.9
2018-Feb-08 12:30N 16°50' W 062°16'3 0.3
2018-Feb-08 01:28N 16°48' W 062°13'0 0.0
2018-Feb-08 00:58N 16°48' W 062°13'0 0.0
2018-Feb-08 00:19N 16°48' W 062°13'0 0.0
2018-Feb-07 23:55N 16°48' W 062°13'0 0.0
2018-Feb-07 23:28N 16°48' W 062°13'0 0.0
2018-Feb-07 22:52N 16°48' W 062°13'0 0.0
2018-Feb-07 22:28N 16°48' W 062°13'0 0.0
2018-Feb-07 21:58N 16°48' W 062°13'0 0.0
2018-Feb-07 21:28N 16°48' W 062°13'  

Dump ship's entire track history